Search for airport 
image banner adimage banner adimage banner ad
image banner ad

KONT - Ontario Intl

Located in Ontario, United States

ICAO - ONT, IATA - ONT

Data provided by Airmate  

General information

Coordinates: N34°3'22" W117°36'4"
Elevation is 944 feet MSL.
Magnetic variation is 12° East
View others Airports in California

Operational data

Special qualification required
Current time UTC:
Current local time:
Weather
METAR: KONT 240853Z 25007KT 10SM FEW080 SCT120 SCT250 18/12 A3000 RMK AO2 SLP140 T01830122 58001
TAF: KONT 240520Z 2406/2512 25007KT P6SM FEW150 FM241100 VRB04KT 5SM BR BKN009 FM241600 VRB05KT P6SM FEW010 FM242100 25010KT P6SM SKC FM250500 25007KT P6SM FEW150 FM251100 VRB04KT 5SM BR BKN009
View NOTAMs / SUP AIP / TFR affecting this airport [VIEW]
Communications frequencies: [VIEW]

Runways:

RWY identifierQFULength (ft)Width (ft)SurfaceLDA (ft)
08R90°10200150CONC10200
26L270°10200150CONC10200
08L90°12197150CONC11200
26R270°12197150CONC12197

Airport contact information

Address: Ontario United States

Satellite view of KONT